Laura, Illinois
Current Conditions -  °F | °C
As of 6:54 AM on Wednesday 22 Oct 2014 (Local Time) from KPIA Reporting Station
Haze Haze  
Wind Chill: 36°   Ceiling: Unl
Heat Index: 39°   Visibility: 6mi
Dew Point: 35°   Wind: 5mph
Humidity: 86%   Direction: 50°NE
Pressure: 30.32"   Gusts: NA
Location:  40.92°N, 89.93°W
Report Text: KPIA 221154Z 05004KT 6SM BR CLR 04/02 A3032 RMK AO2 SLP272 T00390017 10061 20033 51015
Loading
Personal Weather Stations






























Interactive Weather Map
Tropical Storm Tracking
New forecast layout! Learn more

10-Day Weather Forecast

Advertisements
Track Severe Weather on mobile